Nearby METAR Reports

 

KMLP - Mullan Pass, Idaho, USA
Distance from station: NE 41mi, 66km
Updated: Wed, 03-Jun-2020 9:53pm PDT
Clear
Clear
 Wind from varies
Wind: varies 6 mph , 9 km/h
Temperature: 45°F , 7°C
Wind Chill: 42°F , 6°C
Dew Point: 28°F , -2°C
Humidity: 53%
Barometer: 30.04 inHg , 1017.3 hPa
Clouds: Clear
Visibility: 10 miles , 16 km
2020/06/04 04:53 KMLP 040453Z AUTO VRB05KT 10SM CLR 07/M02 A3004 RMK AO2 SLP109 T00671017
KPUW - Pullman/Moscow, Washington, USA
Distance from station: SW 42mi, 68km
Updated: Wed, 03-Jun-2020 9:53pm PDT
Clear
Clear
 Wind from calm
Wind: Calm
Temperature: 57°F , 14°C
Dew Point: 46°F , 8°C
Humidity: 67%
Barometer: 29.98 inHg , 1015.2 hPa
Clouds: Clear
Visibility: 10 miles , 16 km
2020/06/04 04:53 KPUW 040453Z AUTO 00000KT 10SM CLR 14/08 A2998 RMK AO2 SLP146 T01390078
 
KCOE - Coeur D'alene, Idaho, USA
Distance from station: NNW 49mi, 79km
Updated: Wed, 03-Jun-2020 9:56pm PDT
Clear
Clear
 Wind from SE
Wind: SE 6 mph , 9 km/h
Temperature: 63°F , 17°C
Dew Point: 39°F , 4°C
Humidity: 42%
Barometer: 29.94 inHg , 1013.9 hPa
Clouds: Clear
Visibility: 10 miles , 16 km
2020/06/04 04:56 KCOE 040456Z AUTO 14005KT 10SM CLR 17/04 A2994 RMK AO2 SLP148 T01670044
KSFF - Spokane/Felts, Washington, USA
Distance from station: NW 59mi, 94km
Updated: Wed, 03-Jun-2020 9:53pm PDT
Clear
Clear
 Wind from calm
Wind: Calm
Temperature: 59°F , 15°C
Dew Point: 43°F , 6°C
Humidity: 55%
Barometer: 29.93 inHg , 1013.5 hPa
Clouds: Clear
Visibility: 10 miles , 16 km
2020/06/04 04:53 KSFF 040453Z AUTO 00000KT 10SM CLR 15/06 A2993 RMK AO2 SLP129 T01500056
 
KLWS - Lewiston, Idaho, USA
Distance from station: SSW 59mi, 96km
Updated: Wed, 03-Jun-2020 10:20pm PDT
unable to load KLWS data RC=
unable to load KLWS data RC=
 
KGEG - Spokane/Metro, Washington, USA
Distance from station: WNW 64mi, 103km
Updated: Wed, 03-Jun-2020 9:53pm PDT
Overcast
Overcast
 Wind from WSW
Wind: WSW 5 mph , 7 km/h
Temperature: 63°F , 17°C
Dew Point: 37°F , 3°C
Humidity: 39%
Barometer: 29.94 inHg , 1013.9 hPa
Clouds: Overcast
Visibility: 10 miles , 16 km
Cloud details: Overcast 14000 ft
2020/06/04 04:53 KGEG 040453Z 24004KT 10SM OVC140 17/03 A2994 RMK AO2 SLP129 T01720033
 
KSKA - Fairchild Afb, Washington, USA
Distance from station: WNW 68mi, 110km
Updated: Wed, 03-Jun-2020 10:20pm PDT
unable to load KSKA data RC=
unable to load KSKA data RC=